Погода Хантауна 2 недели

Жамбылская область, Казахстан

24 июля-06 августа
  • 24июля
    Сегодня
    +24°
    +37°
    Небольшая облачность
    ВремяПогодаТемператураВлажностьДавлениеВетер, м/сВероятность осадков
    02:00Практически безоблачно+25°C41 %704 мм3.8 м/с2 %
    05:00Ясно и безоблачно+24°C45 %704 мм4.5 м/с2 %
    08:00Ясно и безоблачно+29°C33 %705 мм5.1 м/с2 %
    11:00Ясно и безоблачно+34°C27 %705 мм3.5 м/с2 %
    14:00Небольшая облачность+36°C22 %704 мм2.4 м/с4 %
    17:00Практически безоблачно+36°C21 %703 мм1.9 м/с6 %
    20:00Практически безоблачно+32°C30 %704 мм3.8 м/с2 %
    23:00Ясно и безоблачно+29°C33 %703 мм4.9 м/с2 %
  • 25июля
    Четверг
    +25°
    +39°
    Ясно и безоблачно
    ВремяПогодаТемператураВлажностьДавлениеВетер, м/сВероятность осадков
    02:00Ясно и безоблачно+27°C37 %702 мм4.7 м/с2 %
    05:00Ясно и безоблачно+24°C39 %702 мм3.3 м/с2 %
    08:00Ясно и безоблачно+30°C31 %704 мм1.9 м/с2 %
    11:00Ясно и безоблачно+35°C22 %704 мм0.8 м/с2 %
    14:00Ясно и безоблачно+37°C18 %704 мм2.0 м/с2 %
    17:00Практически безоблачно+38°C17 %704 мм3.1 м/с2 %
    20:00Ясно и безоблачно+32°C22 %704 мм2.8 м/с2 %
    23:00Ясно и безоблачно+29°C32 %704 мм5.2 м/с2 %
  • 26июля
    Пятница
    +24°
    +41°
    Ясно и безоблачно
    ВремяПогодаТемператураВлажностьДавлениеВетер, м/сВероятность осадков
    02:00Ясно и безоблачно+27°C33 %703 мм3.6 м/с2 %
    05:00Небольшая облачность+25°C37 %703 мм2.6 м/с2 %
    08:00Практически безоблачно+32°C28 %705 мм2.8 м/с2 %
    11:00Ясно и безоблачно+37°C20 %705 мм2.6 м/с2 %
    14:00Ясно и безоблачно+39°C16 %705 мм2.0 м/с2 %
    17:00Ясно и безоблачно+40°C15 %705 мм2.4 м/с2 %
    20:00Практически безоблачно+34°C20 %705 мм2.3 м/с2 %
    23:00Ясно и безоблачно+30°C27 %705 мм1.5 м/с2 %
  • 27июля
    Суббота
    +23°
    +39°
    Ясно и безоблачно
    ВремяПогодаТемператураВлажностьДавлениеВетер, м/сВероятность осадков
    02:00Ясно и безоблачно+28°C25 %705 мм1.5 м/с2 %
    05:00Ясно и безоблачно+26°C28 %706 мм1.8 м/с2 %
    08:00Ясно и безоблачно+30°C25 %707 мм1.3 м/с2 %
    11:00Ясно и безоблачно+34°C21 %708 мм3.5 м/с2 %
    14:00Ясно и безоблачно+37°C16 %707 мм2.4 м/с2 %
    17:00Ясно и безоблачно+38°C15 %707 мм1.2 м/с2 %
    20:00Ясно и безоблачно+34°C20 %707 мм3.0 м/с2 %
    23:00Ясно и безоблачно+29°C23 %707 мм4.1 м/с2 %
  • 28июля
    Воскресенье
    +24°
    +38°
    Ясно и безоблачно
    ВремяПогодаТемператураВлажностьДавлениеВетер, м/сВероятность осадков
    02:00Ясно и безоблачно+26°C29 %706 мм5.1 м/с2 %
    05:00Ясно и безоблачно+23°C46 %705 мм4.9 м/с2 %
    08:00Ясно и безоблачно+28°C45 %707 мм1.7 м/с2 %
    11:00Ясно и безоблачно+33°C23 %707 мм2.5 м/с2 %
    14:00Ясно и безоблачно+35°C19 %707 мм3.2 м/с2 %
    17:00Ясно и безоблачно+34°C21 %707 мм3.1 м/с2 %
    20:00Ясно и безоблачно+29°C21 %707 мм4.1 м/с2 %
    23:00Ясно и безоблачно+26°C21 %707 мм4.9 м/с2 %
Мы используем cookies
Соглашаюсь